MMOX 090142Z 13004KT 7SM SKC 22/02 A3021= 090142

MMOX 090042Z 01002KT 7SM SKC 24/M01 A3017= 090043

MMOX 082344Z 07007KT 12SM SCT070 26/M04 A3014 RMK SLP120 52002 903 8/010= 082344

MMOX 082248Z 11003KT 12SM SCT120 28/02 A3012 RMK 8/030= 082249

MMOX 082140Z 00000KT 12SM SCT120 29/03 A3012 RMK 8/030= 082141

MMOX 082041Z 35005KT 10SM FEW070 28/03 A3013 RMK SLP106 57019 906 8/010= 082042

MMOX 081940Z 24005KT 10SM FEW030 28/03 A3016 RMK 8/100= 081940

MMOX 081842Z 03002KT 7SM FEW030 26/07 A3020 RMK 8/100 HZY= 081843

MMOX 081740Z 00000KT 8SM SKC 24/08 A3025 RMK SLP132 57021 908 HZY= 081743

MMOX 081640Z 00000KT 8SM SKC 21/09 A3030 RMK HZY= 081640

MMOX 081540Z 00000KT 10SM SKC 19/09 A3033 RMK HZY= 081540

MMOX 081440Z 01004KT 10SM SKC 14/09 A3033 RMK SLP171 52016 915 HZY= 081440

MMOX 081340Z 36004KT 10SM SKC 11/08 A3031= 081340

MMOX 081240Z 02003KT 10SM SKC 10/07 A3029 RMK HZY= 081240

MMOX 081205Z RTD 34004KT 8SM SKC 11/07 A3027 RMK SLP150 5//// 905 RTS= 081206

MMOX 080245Z 00000KT 8SM SKC 20/07 A3023= 080246

MMOX 080142Z 10003KT 7SM SCT120 22/07 A3020 RMK 8/030= 080143

MMOX 080045Z 05007KT 7SM SCT210 23/06 A3015 RMK 8/006= 080046

MMOX 072353Z 13009KT 12SM FEW030 SCT210 24/06 A3013 RMK SLP121 57005 956 8/106= 072354

MMOX 072241Z 08011KT 12SM FEW120 SCT210 27/04 A3011 RMK 8/016= 072241

MMOX 072140Z 12007KT 12SM SCT120 29/02 A3010 RMK 8/030= 072141

MMOX 072041Z 15002KT 12SM SKC 28/01 A3011 RMK SLP100 57017 966 FU NW= 072041

MMOX 071942Z 12007KT 12SM SKC 29/M01 A3013 RMK FU NW= 071942

MMOX 071840Z 21007KT 12SM SKC 26/03 A3018 RMK FU W= 071841

MMOX 071740Z 36006KT 10SM SKC 25/03 A3023 RMK SLP114 57014 977= 071741

MMOX 071640Z 00000KT 10SM SKC 24/03 A3027= 071640

MMOX 071540Z 01008KT 10SM SKC 20/04 A3028= 071540

MMOX 071440Z 03007KT 10SM SKC 17/05 A3028 RMK SLP141 52006 981= 071443

MMOX 071346Z 11009KT 10SM SKC 13/07 A3027 RMK MSGTX MMMX= 071346

MMOX 071244Z 11011KT 10SM SKC 11/05 A3025 RMK MSGTX MMMX= 071244

MMOX 070242Z 03004KT 8SM SKC 23/07 A3024= 070244

MMOX 070140Z 00000KT 7SM SCT120 23/07 A3022 RMK 8/030= 070140

MMOX 070040Z 00000KT 7SM SCT120 24/04 A3018 RMK 8/030= 070041

MMOX 062348Z 32011KT 12SM SCT040 SCT120 26/04 A3015 RMK SLP126 57005 905 8/130= 062349

MMOX 062240Z 29004KT 12SM SCT120 28/02 A3013 RMK 8/030= 062241

MMOX 062141Z 29004KT 12SM SCT040 29/01 A3013 RMK 8/400= 062141

MMOX 062043Z 15002KT 12SM SCT040 29/00 A3016 RMK SLP118 57028 905 8/400= 062044

MMOX 061947Z 29006KT 12SM SCT030 28/01 A3018 RMK 8/100= 061948

MMOX 061848Z 21003KT 10SM FEW030 27/02 A3022 RMK 8/100 MDT CU NE HZY= 061850

MMOX 061750Z 14005KT 10SM SCT030 26/06 A3026 RMK SLP147 57018 903 8/100 DSNT CU SC ARND HZY= 061753

MMOX 061646Z 05005KT 10SM FEW020 23/10 A3030 RMK 8/100 HZY= 061647

MMOX 061545Z 03006KT 10SM FEW020 20/10 A3033 RMK 8/100 HZY= 061547

MMOX 061446Z 36006KT 10SM SKC 16/09 A3033 RMK SLP184 52011 952 HZY= 061447

MMOX 061346Z 01008KT 10SM SKC 13/09 A3031 RMK HZY= 061347

MMOX 061244Z 35006KT 10SM SKC 11/08 A3030 RMK HZY= 061245

MMOX 061211Z RTD 35005KT 8SM SKC 11/08 A3029 RMK SLP175 5//// 952 RTS= 061212